Irving North's Hourly Summary for Saturday, July 7, 2018
Hour Temp
(f)
RH
(%)
Solar Rad.
(MJ/m2)
Rainfall
(in)
Wind
(mph)
7/7/2018 12:00 AM 81 62 0 0 4.49
7/7/2018 1:00 AM 80 65 0 0 3.54
7/7/2018 2:00 AM 79 67 0 0 3.31
7/7/2018 3:00 AM 78 72 0 0 3.94
7/7/2018 4:00 AM 77 74 0 0 4.05
7/7/2018 5:00 AM 76 77 0 0 4.75
7/7/2018 6:00 AM 75 80 0.05 0 4.39
7/7/2018 7:00 AM 76 73 0.42 0 3.85
7/7/2018 8:00 AM 78 68 1.06 0 4.41
7/7/2018 9:00 AM 81 62 1.63 0 5.02
7/7/2018 10:00 AM 83 57 2.3 0 5.25
7/7/2018 11:00 AM 86 54 2.85 0 4.66
7/7/2018 12:00 PM 88 49 2.81 0 5.49
7/7/2018 1:00 PM 90 42 2.92 0 5.09
7/7/2018 2:00 PM 92 38 2.78 0 6.34
7/7/2018 3:00 PM 93 36 2.82 0 7.24
7/7/2018 4:00 PM 93 36 2.31 0 7.01
7/7/2018 5:00 PM 94 32 1.21 0 7.2
7/7/2018 6:00 PM 93 32 1.05 0 7.89
7/7/2018 7:00 PM 91 39 0.4 0 8.61
7/7/2018 8:00 PM 90 40 0.04 0 6.49
7/7/2018 9:00 PM 89 42 0 0 4.89
7/7/2018 10:00 PM 87 46 0 0 5.86
7/7/2018 11:00 PM 86 52 0 0 5.1
Data Summary 84 53 24.65 0.00 5.37